createdAt,value
2019-03-28T00:00:40.523Z,4.67
2019-03-28T00:03:08.922Z,3.90
2019-03-28T00:05:37.318Z,3.67
2019-03-28T00:08:05.780Z,3.67
2019-03-28T00:10:34.185Z,4.37
2019-03-28T00:13:02.583Z,3.83
2019-03-28T00:15:31.165Z,3.90
2019-03-28T00:17:59.568Z,4.80
2019-03-28T00:20:27.969Z,4.70
2019-03-28T00:23:01.122Z,4.10
2019-03-28T00:25:29.782Z,4.53
2019-03-28T00:27:58.178Z,4.40
2019-03-28T00:30:26.586Z,5.77
2019-03-28T00:32:55.087Z,5.20
2019-03-28T00:35:23.492Z,4.37
2019-03-28T00:37:51.889Z,3.40
2019-03-28T00:40:20.302Z,3.40
2019-03-28T00:42:48.700Z,4.10
2019-03-28T00:45:17.282Z,4.83
2019-03-28T00:47:45.672Z,3.87
2019-03-28T00:50:14.362Z,3.97
2019-03-28T00:52:42.784Z,3.87
2019-03-28T00:55:11.393Z,4.53
2019-03-28T00:57:39.987Z,3.97
2019-03-28T01:00:08.681Z,3.63
2019-03-28T01:02:37.077Z,3.83
2019-03-28T01:05:06.724Z,3.50
2019-03-28T01:07:35.129Z,3.33
2019-03-28T01:10:04.681Z,3.57
2019-03-28T01:12:33.073Z,3.50
2019-03-28T01:15:01.486Z,3.43
2019-03-28T01:17:30.265Z,3.23
2019-03-28T01:19:58.782Z,3.70
2019-03-28T01:22:27.254Z,3.47
2019-03-28T01:24:57.802Z,3.50
2019-03-28T01:27:25.777Z,3.70
2019-03-28T01:29:54.185Z,3.60
2019-03-28T01:32:22.616Z,3.23
2019-03-28T01:34:51.017Z,3.50
2019-03-28T01:37:19.426Z,4.07
2019-03-28T01:39:47.821Z,3.43
2019-03-28T01:42:16.231Z,3.50
2019-03-28T01:44:44.635Z,3.80
2019-03-28T01:47:13.037Z,3.87
2019-03-28T01:49:41.439Z,4.00
2019-03-28T01:52:09.846Z,3.77
2019-03-28T01:54:38.255Z,4.33
2019-03-28T01:57:11.171Z,3.90
2019-03-28T01:59:36.783Z,3.87
2019-03-28T02:02:05.436Z,4.00
2019-03-28T02:04:33.829Z,3.90
2019-03-28T02:07:02.228Z,4.00
2019-03-28T02:09:30.635Z,4.00
2019-03-28T02:11:59.044Z,3.83
2019-03-28T02:14:27.501Z,3.90
2019-03-28T02:16:55.908Z,4.90
2019-03-28T02:19:24.305Z,5.23
2019-03-28T02:21:53.248Z,4.57
2019-03-28T02:24:21.766Z,4.43
2019-03-28T02:26:50.244Z,3.87
2019-03-28T02:29:18.648Z,3.70
2019-03-28T02:31:47.120Z,4.00
2019-03-28T02:34:15.527Z,3.70
2019-03-28T02:36:43.934Z,4.03
2019-03-28T02:39:12.340Z,4.23
2019-03-28T02:41:40.750Z,3.87
2019-03-28T02:44:09.170Z,5.43
2019-03-28T02:46:37.572Z,6.30
2019-03-28T02:49:05.983Z,7.43
2019-03-28T02:51:34.386Z,6.23
2019-03-28T02:54:02.825Z,5.77
2019-03-28T02:56:31.370Z,5.00
2019-03-28T02:58:59.779Z,4.67
2019-03-28T03:01:30.275Z,5.53
2019-03-28T03:03:58.315Z,6.00
2019-03-28T03:06:26.794Z,6.43
2019-03-28T03:08:55.197Z,6.47
2019-03-28T03:11:23.585Z,5.53
2019-03-28T03:13:51.997Z,5.07
2019-03-28T03:16:20.389Z,4.53
2019-03-28T03:18:48.786Z,4.43
2019-03-28T03:21:17.199Z,5.77
2019-03-28T03:23:46.590Z,4.53
2019-03-28T03:26:15.165Z,5.10
2019-03-28T03:28:43.634Z,4.20
2019-03-28T03:31:12.034Z,4.00
2019-03-28T03:33:40.436Z,4.97
2019-03-28T03:36:08.841Z,4.07
2019-03-28T03:38:37.242Z,4.20
2019-03-28T03:41:06.172Z,4.00
2019-03-28T03:43:34.641Z,4.03
2019-03-28T03:46:03.051Z,3.73
2019-03-28T03:48:31.452Z,4.47
2019-03-28T03:50:59.949Z,4.30
2019-03-28T03:53:28.425Z,4.20
2019-03-28T03:55:56.850Z,4.00
2019-03-28T03:58:25.257Z,4.37
2019-03-28T04:00:53.661Z,4.53
2019-03-28T04:03:22.067Z,4.80
2019-03-28T04:05:50.465Z,4.23
2019-03-28T04:08:18.861Z,4.10
2019-03-28T04:10:47.271Z,4.60
2019-03-28T04:13:15.947Z,4.00
2019-03-28T04:15:44.345Z,4.60
2019-03-28T04:18:13.785Z,4.20
2019-03-28T04:20:42.529Z,4.30
2019-03-28T04:23:11.014Z,4.47
2019-03-28T04:25:39.935Z,4.80
2019-03-28T04:28:08.604Z,4.23
2019-03-28T04:30:37.010Z,4.97
2019-03-28T04:33:05.405Z,4.63
2019-03-28T04:35:33.866Z,5.87
2019-03-28T04:38:02.331Z,5.97
2019-03-28T04:40:30.817Z,6.30
2019-03-28T04:42:59.226Z,5.97
2019-03-28T04:45:27.633Z,6.33
2019-03-28T04:47:56.032Z,5.30
2019-03-28T04:50:24.443Z,5.17
2019-03-28T04:52:53.076Z,5.37
2019-03-28T04:55:21.576Z,5.27
2019-03-28T04:57:50.061Z,4.93
2019-03-28T05:00:18.883Z,5.40
2019-03-28T05:02:47.277Z,4.90
2019-03-28T05:05:15.669Z,4.77
2019-03-28T05:07:44.094Z,4.73
2019-03-28T05:10:12.832Z,4.80
2019-03-28T05:12:41.253Z,4.33
2019-03-28T05:15:10.508Z,4.43
2019-03-28T05:17:38.897Z,4.63
2019-03-28T05:20:07.740Z,4.73
2019-03-28T05:22:36.425Z,4.30
2019-03-28T05:25:06.357Z,4.60
2019-03-28T05:27:34.755Z,5.00
2019-03-28T05:30:06.578Z,5.47
2019-03-28T05:32:35.182Z,6.40
2019-03-28T05:35:04.678Z,5.70
2019-03-28T05:37:33.072Z,6.63
2019-03-28T05:40:01.528Z,6.50
2019-03-28T05:42:30.354Z,6.00
2019-03-28T05:44:58.762Z,5.80
2019-03-28T05:47:27.167Z,5.10
2019-03-28T05:49:55.577Z,4.77
2019-03-28T05:52:23.973Z,5.33
2019-03-28T05:54:52.424Z,5.93
2019-03-28T05:57:20.870Z,6.43
2019-03-28T05:59:49.274Z,7.07
2019-03-28T06:02:17.768Z,6.03
2019-03-28T06:04:46.229Z,5.90
2019-03-28T06:07:14.686Z,5.73
2019-03-28T06:09:43.200Z,5.03
2019-03-28T06:12:11.579Z,5.43
2019-03-28T06:14:40.159Z,4.73
2019-03-28T06:17:08.552Z,4.57
2019-03-28T06:19:37.001Z,5.17
2019-03-28T06:22:05.402Z,5.27
2019-03-28T06:24:33.874Z,5.20
2019-03-28T06:27:02.268Z,4.80
2019-03-28T06:29:30.676Z,5.10
2019-03-28T06:31:59.073Z,5.00
2019-03-28T06:34:27.483Z,4.93
2019-03-28T06:36:55.914Z,4.87
2019-03-28T06:39:24.297Z,4.93
2019-03-28T06:41:52.702Z,5.30
2019-03-28T06:44:21.097Z,5.60
2019-03-28T06:46:49.564Z,5.17
2019-03-28T06:49:17.961Z,5.93
2019-03-28T06:51:46.364Z,5.20
2019-03-28T06:54:15.070Z,6.07
2019-03-28T06:56:43.670Z,6.00
2019-03-28T06:59:12.172Z,5.67
2019-03-28T07:01:40.581Z,5.87
2019-03-28T07:04:08.986Z,6.23
2019-03-28T07:06:37.386Z,5.67
2019-03-28T07:09:08.024Z,5.77
2019-03-28T07:11:36.602Z,6.43
2019-03-28T07:14:05.084Z,5.50
2019-03-28T07:16:33.495Z,6.63
2019-03-28T07:19:01.889Z,6.73
2019-03-28T07:21:30.629Z,6.83
2019-03-28T07:23:59.033Z,7.10
2019-03-28T07:26:27.440Z,6.37
2019-03-28T07:28:55.838Z,6.07
2019-03-28T07:31:24.301Z,6.03
2019-03-28T07:33:52.701Z,5.40
2019-03-28T07:36:21.105Z,5.93
2019-03-28T07:38:49.517Z,7.03
2019-03-28T07:41:17.977Z,8.40
2019-03-28T07:43:46.388Z,7.80
2019-03-28T07:46:14.804Z,9.37
2019-03-28T07:48:43.199Z,7.37
2019-03-28T07:51:11.613Z,7.00
2019-03-28T07:53:40.015Z,7.70
2019-03-28T07:56:08.431Z,8.70
2019-03-28T07:58:36.834Z,8.07
2019-03-28T08:01:05.241Z,8.37
2019-03-28T08:03:33.652Z,8.40
2019-03-28T08:06:02.169Z,8.97
2019-03-28T08:08:38.770Z,8.30
2019-03-28T08:11:00.726Z,8.57
2019-03-28T08:13:29.121Z,8.73
2019-03-28T08:15:57.939Z,8.37
2019-03-28T08:18:26.332Z,8.30
2019-03-28T08:20:54.796Z,8.20
2019-03-28T08:23:23.197Z,7.90
2019-03-28T08:25:51.608Z,8.30
2019-03-28T08:28:20.010Z,8.77
2019-03-28T08:30:48.418Z,8.50
2019-03-28T08:33:16.821Z,8.60
2019-03-28T08:35:45.397Z,8.67
2019-03-28T08:38:13.964Z,8.23
2019-03-28T08:40:43.426Z,8.07
2019-03-28T08:43:12.278Z,8.73
2019-03-28T08:45:40.726Z,8.17
2019-03-28T08:48:09.128Z,7.93
2019-03-28T08:50:37.534Z,8.93
2019-03-28T08:53:05.962Z,9.17
2019-03-28T08:55:34.365Z,9.50
2019-03-28T08:58:02.817Z,8.47
2019-03-28T09:00:35.060Z,8.73
2019-03-28T09:03:01.701Z,8.10
2019-03-28T09:05:30.106Z,8.37
2019-03-28T09:07:58.520Z,9.47
2019-03-28T09:10:26.954Z,9.17
2019-03-28T09:12:55.352Z,8.90
2019-03-28T09:15:23.876Z,8.63
2019-03-28T09:17:52.320Z,8.90
2019-03-28T09:20:20.814Z,8.93
2019-03-28T09:22:49.205Z,7.57
2019-03-28T09:25:17.608Z,8.03
2019-03-28T09:27:46.022Z,7.90
2019-03-28T09:30:16.433Z,8.40
2019-03-28T09:32:45.169Z,7.00
2019-03-28T09:35:16.663Z,7.17
2019-03-28T09:37:45.061Z,7.57
2019-03-28T09:40:13.638Z,7.63
2019-03-28T09:42:42.040Z,7.77
2019-03-28T09:45:10.509Z,7.60
2019-03-28T09:47:38.917Z,7.43
2019-03-28T09:50:07.866Z,6.73
2019-03-28T09:52:36.262Z,6.10
2019-03-28T09:55:05.996Z,6.33
2019-03-28T09:57:34.408Z,6.67
2019-03-28T10:00:03.686Z,7.10
2019-03-28T10:02:32.090Z,6.53
2019-03-28T10:05:00.602Z,6.87
2019-03-28T10:07:28.997Z,5.87
2019-03-28T10:09:57.622Z,6.65
2019-03-28T10:12:26.116Z,6.28
2019-03-28T10:14:54.531Z,6.72
2019-03-28T10:17:22.942Z,6.78
2019-03-28T10:19:51.357Z,6.65
2019-03-28T10:22:22.255Z,6.42
2019-03-28T10:24:49.901Z,6.70
2019-03-28T10:27:19.279Z,6.85
2019-03-28T10:29:48.050Z,7.03
2019-03-28T10:32:16.460Z,6.92
2019-03-28T10:34:44.954Z,6.97
2019-03-28T10:37:13.397Z,6.70
2019-03-28T10:39:41.837Z,6.63
2019-03-28T10:42:10.316Z,6.17
2019-03-28T10:44:38.798Z,5.97
2019-03-28T10:47:07.255Z,6.27
2019-03-28T10:49:35.693Z,5.57
2019-03-28T10:52:04.243Z,5.03
2019-03-28T10:54:32.761Z,5.67
2019-03-28T10:57:12.896Z,5.93
2019-03-28T10:59:31.469Z,5.97
2019-03-28T11:01:59.992Z,5.27
2019-03-28T11:04:28.432Z,5.17
2019-03-28T11:06:56.866Z,5.40
2019-03-28T11:09:25.355Z,5.07
2019-03-28T11:11:53.802Z,5.80
2019-03-28T11:14:22.263Z,5.17
2019-03-28T11:16:50.705Z,5.10
2019-03-28T11:19:19.224Z,5.40
2019-03-28T11:21:47.821Z,4.77
2019-03-28T11:24:16.257Z,4.87
2019-03-28T11:26:44.710Z,5.23
2019-03-28T11:29:13.154Z,5.10
2019-03-28T11:31:46.934Z,5.53
2019-03-28T11:34:11.852Z,4.90
2019-03-28T11:36:40.297Z,5.27
2019-03-28T11:39:08.896Z,5.23
2019-03-28T11:41:37.340Z,5.00
2019-03-28T11:44:05.848Z,4.90
2019-03-28T11:46:34.375Z,4.70
2019-03-28T11:49:02.970Z,4.97
2019-03-28T11:51:31.412Z,5.60
2019-03-28T11:54:00.092Z,5.20
2019-03-28T11:56:28.549Z,5.23
2019-03-28T11:58:57.090Z,5.40
2019-03-28T12:01:25.652Z,5.60
2019-03-28T12:03:54.165Z,4.87
2019-03-28T12:06:22.622Z,5.07
2019-03-28T12:08:51.061Z,5.27
2019-03-28T12:11:19.505Z,4.93
2019-03-28T12:13:47.976Z,4.60
2019-03-28T12:16:17.010Z,5.40
2019-03-28T12:18:45.646Z,5.07
2019-03-28T12:21:14.086Z,5.53
2019-03-28T12:23:42.739Z,4.97
2019-03-28T12:26:11.263Z,5.00
2019-03-28T12:28:39.735Z,5.70
2019-03-28T12:31:08.229Z,5.30
2019-03-28T12:33:36.769Z,4.87
2019-03-28T12:36:05.218Z,4.97
2019-03-28T12:38:33.665Z,5.50
2019-03-28T12:41:02.117Z,5.67
2019-03-28T12:43:30.637Z,4.97
2019-03-28T12:45:59.311Z,5.87
2019-03-28T12:48:27.760Z,4.87
2019-03-28T12:50:59.003Z,5.10
2019-03-28T12:53:26.390Z,5.20
2019-03-28T12:55:54.898Z,5.40
2019-03-28T12:58:23.340Z,5.30
2019-03-28T13:00:51.798Z,5.37
2019-03-28T13:03:20.245Z,5.20
2019-03-28T13:05:48.721Z,5.30
2019-03-28T13:08:17.756Z,5.33
2019-03-28T13:10:46.596Z,4.50
2019-03-28T13:13:15.043Z,4.87
2019-03-28T13:15:43.554Z,4.33
2019-03-28T13:18:12.006Z,5.00
2019-03-28T13:20:40.441Z,4.87
2019-03-28T13:23:08.881Z,5.07
2019-03-28T13:25:37.333Z,4.73
2019-03-28T13:28:05.779Z,4.90
2019-03-28T13:30:34.223Z,4.93
2019-03-28T13:33:02.657Z,4.50
2019-03-28T13:35:31.101Z,5.10
2019-03-28T13:37:59.549Z,5.03
2019-03-28T13:40:27.984Z,4.57
2019-03-28T13:42:56.420Z,4.27
2019-03-28T13:45:24.859Z,3.97
2019-03-28T13:47:54.393Z,4.47
2019-03-28T13:50:23.354Z,7.83
2019-03-28T13:52:51.794Z,3.53
2019-03-28T13:55:20.237Z,3.90
2019-03-28T13:57:48.694Z,3.80
2019-03-28T14:00:20.326Z,3.83
2019-03-28T14:02:55.850Z,3.13
2019-03-28T14:05:19.025Z,3.10
2019-03-28T14:07:47.985Z,2.80
2019-03-28T14:10:21.559Z,3.33
2019-03-28T14:12:48.917Z,3.17
2019-03-28T14:15:17.449Z,3.10
2019-03-28T14:17:45.888Z,2.70
2019-03-28T14:20:14.882Z,2.97
2019-03-28T14:22:43.318Z,3.50
2019-03-28T14:25:11.772Z,3.37
2019-03-28T14:27:40.227Z,2.80
2019-03-28T14:30:11.482Z,3.70
2019-03-28T14:32:52.408Z,3.50
2019-03-28T14:35:10.509Z,3.70
2019-03-28T14:37:40.775Z,3.00
2019-03-28T14:40:10.607Z,3.57
2019-03-28T14:42:39.113Z,3.90
2019-03-28T14:45:10.937Z,3.70
2019-03-28T14:47:39.376Z,3.50
2019-03-28T14:50:09.155Z,3.33
2019-03-28T14:52:37.647Z,3.70
2019-03-28T14:55:06.502Z,2.80
2019-03-28T14:57:35.579Z,2.90
2019-03-28T15:00:06.439Z,3.33
2019-03-28T15:02:34.928Z,3.40
2019-03-28T15:05:04.048Z,3.97
2019-03-28T15:07:32.522Z,3.80
2019-03-28T15:10:01.949Z,3.87
2019-03-28T15:12:30.681Z,3.70
2019-03-28T15:14:59.210Z,4.03
2019-03-28T15:17:27.645Z,4.40
2019-03-28T15:19:56.088Z,4.10
2019-03-28T15:22:24.531Z,3.40
2019-03-28T15:24:52.968Z,3.20
2019-03-28T15:27:21.418Z,2.83
2019-03-28T15:29:49.857Z,2.47
2019-03-28T15:32:18.296Z,2.90
2019-03-28T15:34:46.744Z,2.70
2019-03-28T15:37:15.198Z,2.60
2019-03-28T15:39:43.664Z,2.33
2019-03-28T15:42:12.122Z,2.43
2019-03-28T15:44:40.741Z,2.57
2019-03-28T15:47:09.190Z,2.30
2019-03-28T15:49:37.662Z,2.50
2019-03-28T15:52:06.166Z,2.47
2019-03-28T15:54:34.672Z,2.50
2019-03-28T15:57:03.139Z,3.93
2019-03-28T15:59:31.578Z,5.97
2019-03-28T16:02:00.140Z,3.13
2019-03-28T16:04:28.642Z,3.00
2019-03-28T16:06:57.154Z,4.43
2019-03-28T16:09:25.620Z,6.73
2019-03-28T16:12:02.597Z,4.07
2019-03-28T16:14:24.326Z,4.33
2019-03-28T16:16:53.104Z,2.57
2019-03-28T16:19:21.731Z,6.10
2019-03-28T16:21:50.187Z,11.20
2019-03-28T16:24:18.633Z,3.80
2019-03-28T16:26:47.090Z,2.60
2019-03-28T16:29:15.549Z,2.70
2019-03-28T16:31:43.998Z,2.30
2019-03-28T16:34:12.436Z,2.13
2019-03-28T16:36:40.876Z,1.80
2019-03-28T16:39:09.316Z,1.80
2019-03-28T16:41:37.769Z,2.10
2019-03-28T16:44:06.217Z,2.20
2019-03-28T16:46:34.660Z,2.17
2019-03-28T16:49:03.111Z,1.97
2019-03-28T16:51:31.622Z,2.00
2019-03-28T16:54:00.128Z,1.70
2019-03-28T16:56:28.653Z,1.80
2019-03-28T16:58:57.200Z,2.10
2019-03-28T17:01:25.636Z,1.73
2019-03-28T17:03:54.081Z,1.83
2019-03-28T17:06:22.988Z,2.00
2019-03-28T17:08:53.220Z,2.17
2019-03-28T17:11:21.667Z,2.47
2019-03-28T17:13:50.120Z,1.90
2019-03-28T17:16:18.640Z,1.97
2019-03-28T17:18:47.091Z,1.73
2019-03-28T17:21:15.554Z,1.90
2019-03-28T17:23:44.709Z,1.90
2019-03-28T17:26:13.147Z,1.60
2019-03-28T17:28:42.900Z,1.50
2019-03-28T17:31:11.474Z,1.70
2019-03-28T17:33:39.921Z,1.60
2019-03-28T17:36:08.377Z,1.80
2019-03-28T17:38:38.065Z,1.90
2019-03-28T17:41:06.767Z,1.80
2019-03-28T17:43:35.429Z,1.73
2019-03-28T17:46:03.983Z,2.00
2019-03-28T17:48:32.429Z,2.63
2019-03-28T17:51:00.873Z,2.50
2019-03-28T17:53:30.905Z,2.20
2019-03-28T17:55:59.423Z,2.40
2019-03-28T17:58:28.056Z,2.50
2019-03-28T18:00:56.571Z,2.50
2019-03-28T18:03:31.040Z,2.30
2019-03-28T18:05:58.487Z,3.07
2019-03-28T18:08:26.616Z,3.53
2019-03-28T18:10:55.883Z,3.33
2019-03-28T18:13:24.709Z,4.17
2019-03-28T18:15:53.154Z,4.07
2019-03-28T18:18:21.765Z,3.50
2019-03-28T18:20:50.200Z,3.67
2019-03-28T18:23:18.648Z,3.53
2019-03-28T18:25:47.144Z,3.77
2019-03-28T18:28:16.780Z,3.40
2019-03-28T18:30:45.842Z,3.47
2019-03-28T18:33:14.753Z,2.93
2019-03-28T18:35:43.348Z,4.47
2019-03-28T18:38:11.871Z,4.07
2019-03-28T18:40:40.321Z,3.90
2019-03-28T18:43:08.769Z,3.37
2019-03-28T18:45:37.235Z,3.30
2019-03-28T18:48:08.859Z,3.30
2019-03-28T18:50:35.950Z,6.20
2019-03-28T18:53:04.411Z,4.87
2019-03-28T18:55:32.928Z,3.80
2019-03-28T18:58:01.408Z,3.77
2019-03-28T19:00:30.022Z,3.20
2019-03-28T19:02:58.557Z,3.10
2019-03-28T19:05:27.010Z,5.10
2019-03-28T19:07:55.480Z,6.50
2019-03-28T19:10:23.929Z,6.53
2019-03-28T19:12:52.557Z,4.67
2019-03-28T19:15:21.077Z,4.00
2019-03-28T19:17:49.688Z,3.13
2019-03-28T19:20:18.225Z,3.30
2019-03-28T19:22:49.986Z,3.20
2019-03-28T19:25:16.960Z,3.63
2019-03-28T19:27:45.437Z,3.57
2019-03-28T19:30:14.136Z,3.93
2019-03-28T19:32:42.652Z,4.70
2019-03-28T19:35:11.429Z,4.00
2019-03-28T19:37:40.610Z,4.60
2019-03-28T19:40:10.372Z,4.33
2019-03-28T19:42:39.693Z,4.20
2019-03-28T19:45:09.638Z,3.93
2019-03-28T19:47:38.072Z,4.53
2019-03-28T19:50:07.858Z,4.60
2019-03-28T19:52:36.749Z,4.30
2019-03-28T19:55:06.637Z,5.23
2019-03-28T19:57:35.141Z,4.17
2019-03-28T20:00:05.913Z,4.40
2019-03-28T20:02:34.364Z,4.70
2019-03-28T20:05:02.891Z,4.40
2019-03-28T20:07:31.334Z,4.50
2019-03-28T20:09:59.933Z,4.10
2019-03-28T20:12:28.442Z,4.00
2019-03-28T20:14:59.950Z,3.60
2019-03-28T20:17:27.078Z,4.53
2019-03-28T20:19:55.529Z,4.33
2019-03-28T20:22:23.990Z,4.23
2019-03-28T20:24:52.502Z,4.10
2019-03-28T20:27:20.946Z,4.23
2019-03-28T20:29:49.392Z,3.87
2019-03-28T20:32:17.837Z,4.40
2019-03-28T20:34:48.917Z,4.07
2019-03-28T20:37:16.481Z,4.50
2019-03-28T20:39:44.927Z,4.50
2019-03-28T20:42:13.365Z,4.20
2019-03-28T20:44:41.808Z,4.33
2019-03-28T20:47:10.253Z,4.90
2019-03-28T20:49:38.776Z,4.67
2019-03-28T20:52:09.592Z,4.67
2019-03-28T20:54:38.568Z,4.40
2019-03-28T20:57:07.064Z,4.33
2019-03-28T20:59:35.508Z,5.20
2019-03-28T21:02:04.128Z,4.53
2019-03-28T21:04:32.699Z,4.53
2019-03-28T21:07:01.957Z,4.80
2019-03-28T21:09:30.393Z,5.13
2019-03-28T21:11:58.830Z,5.00
2019-03-28T21:14:27.913Z,4.73
2019-03-28T21:16:58.131Z,5.30
2019-03-28T21:19:26.915Z,5.07
2019-03-28T21:21:55.352Z,5.67
2019-03-28T21:24:23.784Z,5.57
2019-03-28T21:26:52.221Z,6.10
2019-03-28T21:29:20.687Z,6.03
2019-03-28T21:31:50.327Z,6.63
2019-03-28T21:34:19.372Z,6.63
2019-03-28T21:36:47.837Z,6.43
2019-03-28T21:39:16.233Z,6.13
2019-03-28T21:41:45.967Z,6.90
2019-03-28T21:44:14.468Z,6.07
2019-03-28T21:46:42.875Z,6.47
2019-03-28T21:49:11.353Z,7.30
2019-03-28T21:51:39.756Z,7.17
2019-03-28T21:54:08.158Z,6.80
2019-03-28T21:56:36.558Z,7.13
2019-03-28T21:59:04.964Z,7.30
2019-03-28T22:01:33.360Z,7.20
2019-03-28T22:04:01.768Z,7.20
2019-03-28T22:06:42.362Z,7.27
2019-03-28T22:09:00.308Z,7.23
2019-03-28T22:11:28.713Z,7.03
2019-03-28T22:13:57.106Z,8.60
2019-03-28T22:16:25.514Z,9.13
2019-03-28T22:18:53.945Z,17.50
2019-03-28T22:21:22.361Z,23.47
2019-03-28T22:23:50.755Z,20.30
2019-03-28T22:26:19.161Z,18.57
2019-03-28T22:28:47.570Z,17.50
2019-03-28T22:31:15.976Z,17.17
2019-03-28T22:33:44.381Z,15.23
2019-03-28T22:36:12.815Z,15.87
2019-03-28T22:38:41.277Z,14.97
2019-03-28T22:41:09.698Z,15.67
2019-03-28T22:43:38.874Z,14.50
2019-03-28T22:46:07.492Z,11.37
2019-03-28T22:48:35.893Z,12.20
2019-03-28T22:51:04.299Z,10.87
2019-03-28T22:53:32.706Z,11.37
2019-03-28T22:56:01.105Z,9.63
2019-03-28T22:58:29.514Z,9.70
2019-03-28T23:00:57.909Z,9.30
2019-03-28T23:03:26.324Z,9.50
2019-03-28T23:05:54.720Z,9.77
2019-03-28T23:08:23.134Z,9.00
2019-03-28T23:10:51.532Z,10.87
2019-03-28T23:13:19.961Z,11.57
2019-03-28T23:15:48.360Z,12.97
2019-03-28T23:18:16.769Z,12.17
2019-03-28T23:20:45.236Z,12.10
2019-03-28T23:23:13.645Z,11.90
2019-03-28T23:25:42.045Z,11.90
2019-03-28T23:28:10.472Z,12.57
2019-03-28T23:30:38.872Z,12.33
2019-03-28T23:33:07.286Z,12.83
2019-03-28T23:35:35.685Z,11.90
2019-03-28T23:38:04.098Z,12.17
2019-03-28T23:40:32.508Z,11.63
2019-03-28T23:43:00.908Z,12.07
2019-03-28T23:45:29.313Z,10.37
2019-03-28T23:47:57.721Z,10.27
2019-03-28T23:50:26.124Z,8.63
2019-03-28T23:52:54.526Z,8.43
2019-03-28T23:55:22.921Z,8.53
2019-03-28T23:57:51.329Z,9.83
